Time;durP1;ratioP1;P1;durP2;ratioP2;P2;SDS_P1;SDS_P2;PMS_P1;PMS_P2;Temp;Humidity;BMP_temperature;BMP_pressure;BME280_temperature;BME280_humidity;BME280_pressure;Samples;Min_cycle;Max_cycle;Signal;HPM_P1;HPM_P2
2022/05/24 00:00:32;;;;;;;;;;;;;;;14.11;68.81543;100050.1;;;;-81
2022/05/24 00:05:33;;;;;;;;;;;;;;;14.11;68.99414;100046;;;;-82
2022/05/24 00:10:31;;;;;;;;;;;;;;;14.1;69.12598;100037.8;;;;-82
2022/05/24 00:15:34;;;;;;;;;;;;;;;14.12;69.3877;100029.9;;;;-81
2022/05/24 00:15:49;;;;;;;12.2;6.1;;;;;;;;;;;;;-81
2022/05/24 00:20:32;;;;;;;;;;;;;;;14.12;69.58887;100019.8;;;;-81
2022/05/24 00:25:31;;;;;;;;;;;;;;;14.1;69.52832;100019.4;;;;-81
2022/05/24 00:30:32;;;;;;;;;;;;;;;14.1;69.51855;100019.7;;;;-81
2022/05/24 00:35:30;;;;;;;;;;;;;;;14.08;70.12012;100021.3;;;;-80
2022/05/24 00:40:38;;;;;;;;;;;;;;;14.08;70.70215;100023.5;;;;-81
2022/05/24 00:45:34;;;;;;;;;;;;;;;14.09;70.37891;100024.8;;;;-80
2022/05/24 00:45:52;;;;;;;11.4;6.6;;;;;;;;;;;;;-79
2022/05/24 00:50:39;;;;;;;;;;;;;;;14.09;70.60254;100025.2;;;;-79
2022/05/24 00:55:31;;;;;;;;;;;;;;;14.1;70.34668;100017.7;;;;-80
2022/05/24 01:00:31;;;;;;;;;;;;;;;14.09;70.6582;100016.3;;;;-81
2022/05/24 01:05:33;;;;;;;;;;;;;;;14.09;70.89355;100016.2;;;;-81
2022/05/24 01:10:34;;;;;;;;;;;;;;;14.1;70.90625;100010.9;;;;-81
2022/05/24 01:15:31;;;;;;;;;;;;;;;14.11;71.12012;100014.2;;;;-80
2022/05/24 01:15:52;;;;;;;8.7;5.9;;;;;;;;;;;;;-82
2022/05/24 01:20:30;;;;;;;;;;;;;;;14.12;70.97656;100003.7;;;;-80
2022/05/24 01:25:43;;;;;;;;;;;;;;;14.1;71.00586;99994.98;;;;-82
2022/05/24 01:30:30;;;;;;;;;;;;;;;14.07;71.13477;99991;;;;-81
2022/05/24 01:40:31;;;;;;;;;;;;;;;14.05;71.19922;100018.1;;;;-82
2022/05/24 01:45:34;;;;;;;;;;;;;;;14.04;71.44336;100021;;;;-83
2022/05/24 01:45:55;;;;;;;10.2;5.2;;;;;;;;;;;;;-81
2022/05/24 01:50:37;;;;;;;;;;;;;;;14.01;71.41895;100016.4;;;;-81
2022/05/24 02:00:41;;;;;;;;;;;;;;;14.02;71.80957;100001.5;;;;-81
2022/05/24 02:05:44;;;;;;;;;;;;;;;14.02;71.83203;100001.3;;;;-80
2022/05/24 02:10:35;;;;;;;;;;;;;;;13.96;71.86816;99997.31;;;;-79
2022/05/24 02:15:36;;;;;;;;;;;;;;;14.01;71.86426;100012.9;;;;-80
2022/05/24 02:16:06;;;;;;;9.6;4.5;;;;;;;;;;;;;-80
2022/05/24 02:20:47;;;;;;;;;;;;;;;13.99;71.76074;100018.3;;;;-80
2022/05/24 02:30:32;;;;;;;;;;;;;;;13.94;72.51367;100014;;;;-80
2022/05/24 02:35:36;;;;;;;;;;;;;;;13.94;72.63672;100010.1;;;;-78
2022/05/24 02:42:08;;;;;;;;;;;;;;;13.94;72.30078;100008.3;;;;-80
2022/05/24 02:52:17;;;;;;;;;;;;;;;13.94;72.21191;100007.1;;;;-80
2022/05/24 02:57:09;;;;;;;;;;;;;;;13.93;72.07324;100008.3;;;;-78
2022/05/24 03:02:12;;;;;;;;;;;;;;;13.93;72.18652;100000.2;;;;-81
2022/05/24 03:16:24;;;;;;;10.4;3.5;;;;;;;;;;;;;-80
2022/05/24 03:17:02;;;;;;;;;;;;;;;13.91;72.01758;99998.77;;;;-80
2022/05/24 03:22:03;;;;;;;;;;;;;;;13.91;72.25;99999.84;;;;-81
2022/05/24 03:27:05;;;;;;;;;;;;;;;13.88;72.60352;100002.5;;;;-81
2022/05/24 03:32:01;;;;;;;;;;;;;;;13.87;72.60254;99994.39;;;;-80
2022/05/24 03:37:01;;;;;;;;;;;;;;;13.84;73.61328;100001.1;;;;-80
2022/05/24 03:42:01;;;;;;;;;;;;;;;13.78;74.10645;100011.3;;;;-80
2022/05/24 03:46:06;;;;;;;12.9;7;;;;;;;;;;;;;-79
2022/05/24 03:47:01;;;;;;;;;;;;;;;13.76;74.06836;100028.7;;;;-81
2022/05/24 03:52:03;;;;;;;;;;;;;;;13.71;74.62793;100039.2;;;;-82
2022/05/24 04:02:00;;;;;;;;;;;;;;;13.64;74.35156;100052.1;;;;-78
2022/05/24 04:07:01;;;;;;;;;;;;;;;13.6;74.35449;100057.7;;;;-80
2022/05/24 04:12:01;;;;;;;;;;;;;;;13.56;74.41504;100072.7;;;;-79
2022/05/24 04:16:04;;;;;;;7.8;2.6;;;;;;;;;;;;;-80
2022/05/24 04:17:01;;;;;;;;;;;;;;;13.54;74.37695;100075.6;;;;-81
2022/05/24 04:22:01;;;;;;;;;;;;;;;13.51;74.30762;100094.7;;;;-81
2022/05/24 04:27:03;;;;;;;;;;;;;;;13.52;74.25195;100092.8;;;;-79
2022/05/24 04:32:01;;;;;;;;;;;;;;;13.51;74.39453;100090.5;;;;-79
2022/05/24 04:37:02;;;;;;;;;;;;;;;13.52;74.38574;100078.9;;;;-81
2022/05/24 04:46:05;;;;;;;5.7;1.9;;;;;;;;;;;;;-81
2022/05/24 04:47:16;;;;;;;;;;;;;;;13.53;74.33301;100088.3;;;;-81
2022/05/24 04:52:00;;;;;;;;;;;;;;;13.55;73.89844;100066.8;;;;-79
2022/05/24 04:57:02;;;;;;;;;;;;;;;13.55;73.69824;100073.7;;;;-79
2022/05/24 05:02:07;;;;;;;;;;;;;;;13.55;73.74414;100073.3;;;;-82
2022/05/24 05:07:10;;;;;;;;;;;;;;;13.56;73.51172;100086.1;;;;-81
2022/05/24 05:12:10;;;;;;;;;;;;;;;13.55;73.81152;100078.8;;;;-82
2022/05/24 05:16:17;;;;;;;7.3;2.2;;;;;;;;;;;;;-80
2022/05/24 05:17:05;;;;;;;;;;;;;;;13.58;73.76953;100089.4;;;;-79
2022/05/24 05:22:16;;;;;;;;;;;;;;;13.58;73.72461;100090.1;;;;-81
2022/05/24 05:27:05;;;;;;;;;;;;;;;13.64;73.43555;100092.3;;;;-80
2022/05/24 05:32:09;;;;;;;;;;;;;;;13.7;73.14355;100106;;;;-80
2022/05/24 05:37:10;;;;;;;;;;;;;;;13.72;73.15723;100123.6;;;;-80
2022/05/24 05:42:21;;;;;;;;;;;;;;;13.72;72.99023;100133.5;;;;-79
2022/05/24 05:46:19;;;;;;;8.6;2.1;;;;;;;;;;;;;-81
2022/05/24 05:47:14;;;;;;;;;;;;;;;13.71;72.88965;100143.3;;;;-81
2022/05/24 05:56:25;;;;;;;;;;;;;;;13.73;72.98145;100156.9;;;;-80
2022/05/24 06:01:39;;;;;;;;;;;;;;;13.78;72.94336;100154.5;;;;-80
2022/05/24 06:08:46;;;;;;;;;;;;;;;13.81;72.93945;100152.9;;;;-81
2022/05/24 06:13:43;;;;;;;;;;;;;;;13.87;72.98047;100155.8;;;;-81
2022/05/24 06:16:10;;;;;;;7.3;2.1;;;;;;;;;;;;;-81
2022/05/24 06:18:43;;;;;;;;;;;;;;;13.95;72.9043;100167.2;;;;-79
2022/05/24 06:23:43;;;;;;;;;;;;;;;14.1;72.41406;100170.8;;;;-81
2022/05/24 06:28:44;;;;;;;;;;;;;;;14.14;71.99707;100168.2;;;;-82
2022/05/24 06:33:47;;;;;;;;;;;;;;;14.15;71.89746;100175.3;;;;-79
2022/05/24 06:38:43;;;;;;;;;;;;;;;14.16;72.02246;100171.3;;;;-79
2022/05/24 06:43:46;;;;;;;;;;;;;;;14.19;72.11816;100183;;;;-80
2022/05/24 06:46:11;;;;;;;7.4;1.8;;;;;;;;;;;;;-80
2022/05/24 06:48:44;;;;;;;;;;;;;;;14.2;72.15332;100212.5;;;;-80
2022/05/24 06:53:43;;;;;;;;;;;;;;;14.12;72.07227;100211.6;;;;-80
2022/05/24 06:58:43;;;;;;;;;;;;;;;13.99;72.33105;100214.7;;;;-80
2022/05/24 07:03:44;;;;;;;;;;;;;;;13.91;72.68652;100214.1;;;;-80
2022/05/24 07:08:44;;;;;;;;;;;;;;;13.99;72.68848;100220.3;;;;-81
2022/05/24 07:13:43;;;;;;;;;;;;;;;14.48;72.75684;100217.9;;;;-81
2022/05/24 07:16:15;;;;;;;3.7;1.3;;;;;;;;;;;;;-81
2022/05/24 07:18:43;;;;;;;;;;;;;;;14.85;71.73242;100215.1;;;;-81
2022/05/24 07:23:49;;;;;;;;;;;;;;;15.03;71.01074;100218.8;;;;-82
2022/05/24 07:28:43;;;;;;;;;;;;;;;15.3;70.90918;100230.4;;;;-78
2022/05/24 07:33:43;;;;;;;;;;;;;;;15.54;70.11621;100243.7;;;;-80
2022/05/24 07:38:43;;;;;;;;;;;;;;;15.51;69.5166;100256.8;;;;-81
2022/05/24 07:46:16;;;;;;;3.1;1.1;;;;;;;;;;;;;-83
2022/05/24 07:48:43;;;;;;;;;;;;;;;15.6;69.38477;100261.8;;;;-81
2022/05/24 07:53:43;;;;;;;;;;;;;;;15.77;68.56836;100268.9;;;;-81
2022/05/24 07:58:43;;;;;;;;;;;;;;;15.69;67.36426;100275.5;;;;-81
2022/05/24 08:03:44;;;;;;;;;;;;;;;15.49;67.28906;100282.5;;;;-82
2022/05/24 08:08:43;;;;;;;;;;;;;;;15.39;67.18359;100287.8;;;;-79
2022/05/24 08:13:47;;;;;;;;;;;;;;;15.35;67.12207;100293.5;;;;-80
2022/05/24 08:16:16;;;;;;;4.9;1.3;;;;;;;;;;;;;-81
2022/05/24 08:18:44;;;;;;;;;;;;;;;15.31;66.89063;100298.5;;;;-80
2022/05/24 08:23:43;;;;;;;;;;;;;;;15.28;67.03418;100302;;;;-79
2022/05/24 08:28:47;;;;;;;;;;;;;;;15.31;67.30664;100301.2;;;;-82
2022/05/24 08:33:45;;;;;;;;;;;;;;;15.53;66.94727;100300.4;;;;-81
2022/05/24 08:38:56;;;;;;;;;;;;;;;15.71;66.40234;100304.4;;;;-81
2022/05/24 08:43:54;;;;;;;;;;;;;;;15.83;65.54199;100323.6;;;;-82
2022/05/24 08:48:51;;;;;;;;;;;;;;;15.76;65.45313;100322.9;;;;-80
2022/05/24 08:53:45;;;;;;;;;;;;;;;15.94;65.80566;100334.5;;;;-82
2022/05/24 08:58:53;;;;;;;;;;;;;;;16.08;64.98242;100339.3;;;;-81
2022/05/24 09:03:43;;;;;;;;;;;;;;;16.12;64.64941;100358.3;;;;-81
2022/05/24 09:08:53;;;;;;;;;;;;;;;16.16;64.65625;100370.8;;;;-82
2022/05/24 09:13:54;;;;;;;;;;;;;;;16.23;64.60938;100374.2;;;;-79
2022/05/24 09:16:21;;;;;;;3;1.9;;;;;;;;;;;;;-82
2022/05/24 09:18:50;;;;;;;;;;;;;;;16.3;64.62012;100385.7;;;;-82
2022/05/24 09:23:45;;;;;;;;;;;;;;;16.33;64.55762;100392.5;;;;-79
2022/05/24 09:28:50;;;;;;;;;;;;;;;16.33;64.22949;100410.1;;;;-81
2022/05/24 09:33:44;;;;;;;;;;;;;;;16.21;63.9873;100431.8;;;;-81
2022/05/24 09:38:43;;;;;;;;;;;;;;;16.04;64.21094;100438.2;;;;-82
2022/05/24 09:43:44;;;;;;;;;;;;;;;15.88;64.44824;100445;;;;-80
2022/05/24 09:46:24;;;;;;;3;1.1;;;;;;;;;;;;;-82
2022/05/24 09:48:53;;;;;;;;;;;;;;;15.73;64.63867;100448.6;;;;-83
2022/05/24 09:53:50;;;;;;;;;;;;;;;15.59;64.70801;100469.1;;;;-82
2022/05/24 09:58:53;;;;;;;;;;;;;;;15.49;64.89551;100477.8;;;;-80
2022/05/24 10:03:44;;;;;;;;;;;;;;;15.4;65.12891;100482.6;;;;-83
2022/05/24 10:08:57;;;;;;;;;;;;;;;15.37;65.19238;100482.8;;;;-83
2022/05/24 10:13:52;;;;;;;;;;;;;;;15.43;65.26953;100493.7;;;;-83
2022/05/24 10:16:31;;;;;;;4.5;1.1;;;;;;;;;;;;;-82
2022/05/24 10:19:06;;;;;;;;;;;;;;;15.62;65.75879;100499.8;;;;-82
2022/05/24 10:23:51;;;;;;;;;;;;;;;16.02;65.96484;100510.5;;;;-82
2022/05/24 10:29:02;;;;;;;;;;;;;;;16.5;65.83398;100518.5;;;;-81
2022/05/24 10:38:58;;;;;;;;;;;;;;;17.18;63.68945;100532.4;;;;-81
2022/05/24 10:43:59;;;;;;;;;;;;;;;17.38;62.98242;100540.6;;;;-82
2022/05/24 10:46:35;;;;;;;7.1;2.3;;;;;;;;;;;;;-81
2022/05/24 10:48:49;;;;;;;;;;;;;;;17.58;61.9707;100537.8;;;;-82
2022/05/24 10:53:51;;;;;;;;;;;;;;;17.91;61.42871;100538;;;;-80
2022/05/24 10:58:45;;;;;;;;;;;;;;;18.21;60.41699;100541;;;;-82
2022/05/24 11:03:51;;;;;;;;;;;;;;;18.49;59.51563;100552.5;;;;-84
2022/05/24 11:08:52;;;;;;;;;;;;;;;18.76;59.30176;100552.5;;;;-83
2022/05/24 11:13:49;;;;;;;;;;;;;;;19.2;58.96191;100553;;;;-83
2022/05/24 11:16:32;;;;;;;5.6;2.2;;;;;;;;;;;;;-82
2022/05/24 11:23:54;;;;;;;;;;;;;;;19.79;57.18652;100573.1;;;;-82
2022/05/24 11:28:47;;;;;;;;;;;;;;;19.85;56.90918;100577.1;;;;-83
2022/05/24 11:33:47;;;;;;;;;;;;;;;19.94;55.97656;100579;;;;-81
2022/05/24 11:38:52;;;;;;;;;;;;;;;20.17;56.41504;100580.7;;;;-82
2022/05/24 11:43:54;;;;;;;;;;;;;;;20.53;55.37598;100591;;;;-81
2022/05/24 11:46:44;;;;;;;5;1.8;;;;;;;;;;;;;-83
2022/05/24 11:48:56;;;;;;;;;;;;;;;20.68;54.73438;100591.2;;;;-83
2022/05/24 11:53:49;;;;;;;;;;;;;;;20.78;53.7998;100587.9;;;;-81
2022/05/24 11:58:57;;;;;;;;;;;;;;;20.77;54.06055;100593.8;;;;-82
2022/05/24 12:08:43;;;;;;;;;;;;;;;21.2;53.68945;100617.8;;;;-85
2022/05/24 12:14:00;;;;;;;;;;;;;;;21.48;53.51855;100629.4;;;;-82
2022/05/24 12:16:52;;;;;;;4.9;1.4;;;;;;;;;;;;;-82
2022/05/24 12:18:57;;;;;;;;;;;;;;;21.68;52.78613;100630.9;;;;-83
2022/05/24 12:23:47;;;;;;;;;;;;;;;21.77;52.19043;100635.2;;;;-83
2022/05/24 12:28:54;;;;;;;;;;;;;;;21.81;51.84082;100646.9;;;;-84
2022/05/24 12:33:52;;;;;;;;;;;;;;;21.78;51.44727;100638.6;;;;-83
2022/05/24 12:38:50;;;;;;;;;;;;;;;21.85;51.54688;100647.2;;;;-81
2022/05/24 12:43:54;;;;;;;;;;;;;;;21.97;51.64063;100660.3;;;;-83
2022/05/24 12:46:37;;;;;;;3.5;1.2;;;;;;;;;;;;;-82
2022/05/24 12:48:43;;;;;;;;;;;;;;;22.05;50.96289;100676.5;;;;-83
2022/05/24 12:53:44;;;;;;;;;;;;;;;22.15;50.67676;100674.8;;;;-83
2022/05/24 12:58:44;;;;;;;;;;;;;;;22.42;50.50098;100687.2;;;;-83
2022/05/24 13:03:48;;;;;;;;;;;;;;;22.58;49.71582;100699.5;;;;-84
2022/05/24 13:08:44;;;;;;;;;;;;;;;22.65;49.56348;100701.1;;;;-85
2022/05/24 13:13:48;;;;;;;;;;;;;;;22.77;49.64453;100703.2;;;;-83
2022/05/24 13:16:47;;;;;;;3.7;1.2;;;;;;;;;;;;;-85
2022/05/24 13:18:53;;;;;;;;;;;;;;;22.79;49.50879;100716.4;;;;-85
2022/05/24 13:23:44;;;;;;;;;;;;;;;22.82;48.82227;100719.4;;;;-85
2022/05/24 13:28:51;;;;;;;;;;;;;;;22.79;48.98047;100725.4;;;;-85
2022/05/24 13:33:46;;;;;;;;;;;;;;;22.88;48.25488;100715.7;;;;-83
2022/05/24 13:38:50;;;;;;;;;;;;;;;22.94;48.87109;100724.1;;;;-83
2022/05/24 13:43:44;;;;;;;;;;;;;;;23.04;48.54883;100728.1;;;;-84
2022/05/24 13:46:53;;;;;;;3.8;1;;;;;;;;;;;;;-84
2022/05/24 13:48:49;;;;;;;;;;;;;;;23.15;48.61816;100729.3;;;;-84
2022/05/24 13:53:47;;;;;;;;;;;;;;;23.27;47.74512;100734.4;;;;-84
2022/05/24 13:58:49;;;;;;;;;;;;;;;23.29;47.63281;100738.8;;;;-85
2022/05/24 14:03:53;;;;;;;;;;;;;;;23.4;47.51758;100731;;;;-84
2022/05/24 14:08:45;;;;;;;;;;;;;;;23.54;47.38379;100738.6;;;;-83
2022/05/24 14:13:43;;;;;;;;;;;;;;;23.53;46.93359;100746.6;;;;-84
2022/05/24 14:16:44;;;;;;;2.5;0.9;;;;;;;;;;;;;-84
2022/05/24 14:18:44;;;;;;;;;;;;;;;23.53;47.06055;100753.5;;;;-82
2022/05/24 14:23:43;;;;;;;;;;;;;;;23.55;46.85449;100752;;;;-83
2022/05/24 14:28:44;;;;;;;;;;;;;;;23.66;46.90039;100763.9;;;;-85
2022/05/24 14:33:45;;;;;;;;;;;;;;;23.74;46.52832;100770.8;;;;-83
2022/05/24 14:38:48;;;;;;;;;;;;;;;23.72;46.36523;100776.2;;;;-84
2022/05/24 14:44:00;;;;;;;;;;;;;;;23.58;46.59277;100776.4;;;;-84
2022/05/24 14:46:48;;;;;;;3.5;1;;;;;;;;;;;;;-84
2022/05/24 14:48:45;;;;;;;;;;;;;;;23.5;46.58398;100786;;;;-81
2022/05/24 14:53:44;;;;;;;;;;;;;;;23.5;46.5498;100792.4;;;;-82
2022/05/24 14:58:43;;;;;;;;;;;;;;;23.57;46.68359;100791.9;;;;-82
2022/05/24 15:03:44;;;;;;;;;;;;;;;23.59;46.20215;100800.1;;;;-81
2022/05/24 15:16:50;;;;;;;2.5;1;;;;;;;;;;;;;-83
2022/05/24 15:18:44;;;;;;;;;;;;;;;23.12;46.55762;100820.9;;;;-82
2022/05/24 15:23:45;;;;;;;;;;;;;;;22.98;46.76172;100819.2;;;;-83
2022/05/24 15:28:54;;;;;;;;;;;;;;;22.93;47.02051;100827.7;;;;-80
2022/05/24 15:33:43;;;;;;;;;;;;;;;22.97;46.9668;100831.4;;;;-82
2022/05/24 15:38:44;;;;;;;;;;;;;;;23;46.79785;100836.7;;;;-83
2022/05/24 15:43:49;;;;;;;;;;;;;;;22.95;46.68848;100841;;;;-83
2022/05/24 15:47:01;;;;;;;4.1;1.5;;;;;;;;;;;;;-77
2022/05/24 15:48:43;;;;;;;;;;;;;;;21.87;45.22266;100846;;;;-82
2022/05/24 15:53:52;;;;;;;;;;;;;;;22.1;46.29004;100854;;;;-81
2022/05/24 15:58:55;;;;;;;;;;;;;;;22.33;46.20996;100855.5;;;;-82
2022/05/24 16:03:54;;;;;;;;;;;;;;;22.5;46.40137;100858;;;;-81
2022/05/24 16:13:44;;;;;;;;;;;;;;;22.74;45.94238;100872.1;;;;-81
2022/05/24 16:16:58;;;;;;;2.7;1;;;;;;;;;;;;;-82
2022/05/24 16:18:43;;;;;;;;;;;;;;;22.77;46.25586;100871.7;;;;-83
2022/05/24 16:23:43;;;;;;;;;;;;;;;22.76;46.16406;100879.3;;;;-84
2022/05/24 16:33:57;;;;;;;;;;;;;;;22.73;45.86133;100883.4;;;;-82
2022/05/24 16:38:43;;;;;;;;;;;;;;;22.66;46.08496;100886.3;;;;-83
2022/05/24 16:47:01;;;;;;;2.7;1;;;;;;;;;;;;;-84
2022/05/24 16:48:48;;;;;;;;;;;;;;;22.39;46.35547;100894.1;;;;-83
2022/05/24 16:53:58;;;;;;;;;;;;;;;22.21;46.99023;100896.8;;;;-83
2022/05/24 16:58:49;;;;;;;;;;;;;;;22.11;46.81934;100900.7;;;;-85
2022/05/24 17:03:43;;;;;;;;;;;;;;;21.99;47.11621;100904.8;;;;-82
2022/05/24 17:08:47;;;;;;;;;;;;;;;21.87;47.17188;100907.7;;;;-78
2022/05/24 17:13:43;;;;;;;;;;;;;;;21.77;47.32227;100907.9;;;;-81
2022/05/24 17:17:03;;;;;;;2.7;1.2;;;;;;;;;;;;;-84
2022/05/24 17:18:54;;;;;;;;;;;;;;;21.63;47.73047;100906.3;;;;-84
2022/05/24 17:28:58;;;;;;;;;;;;;;;21.35;47.98828;100906.3;;;;-86
2022/05/24 17:33:43;;;;;;;;;;;;;;;21.18;48.0498;100913.2;;;;-81
2022/05/24 17:38:47;;;;;;;;;;;;;;;20.98;48.0957;100918.2;;;;-82
2022/05/24 17:43:43;;;;;;;;;;;;;;;20.79;48.7041;100928.8;;;;-82
2022/05/24 17:47:06;;;;;;;2.7;1.2;;;;;;;;;;;;;-83
2022/05/24 17:48:50;;;;;;;;;;;;;;;20.6;48.78711;100935.2;;;;-83
2022/05/24 17:53:54;;;;;;;;;;;;;;;20.43;49.24805;100944.6;;;;-83
2022/05/24 17:58:54;;;;;;;;;;;;;;;20.24;49.25;100948.3;;;;-83
2022/05/24 18:03:43;;;;;;;;;;;;;;;20.02;49.33984;100950.4;;;;-82
2022/05/24 18:08:47;;;;;;;;;;;;;;;19.83;49.75195;100947.8;;;;-83
2022/05/24 18:13:51;;;;;;;;;;;;;;;19.6;49.91992;100947.6;;;;-83
2022/05/24 18:17:12;;;;;;;2.6;1.2;;;;;;;;;;;;;-81
2022/05/24 18:18:52;;;;;;;;;;;;;;;19.41;50.08105;100945.8;;;;-82
2022/05/24 18:23:46;;;;;;;;;;;;;;;19.26;50.37109;100949.4;;;;-82
2022/05/24 18:33:46;;;;;;;;;;;;;;;18.96;50.36133;100960.9;;;;-84
2022/05/24 18:38:44;;;;;;;;;;;;;;;18.84;50.4375;100958.5;;;;-83
2022/05/24 18:43:43;;;;;;;;;;;;;;;18.65;50.55371;100968;;;;-82
2022/05/24 18:47:21;;;;;;;3;1.2;;;;;;;;;;;;;-84
2022/05/24 18:48:49;;;;;;;;;;;;;;;18.43;50.65234;100976.5;;;;-81
2022/05/24 18:54:08;;;;;;;;;;;;;;;;;;;;;
2022/05/24 18:59:36;;;;;;;;;;;;;;;17.94;50.81152;100993.9;;;;-83
2022/05/24 19:04:35;;;;;;;;;;;;;;;17.69;51.06836;101005.9;;;;-84
2022/05/24 19:09:38;;;;;;;;;;;;;;;17.46;51.0752;101008;;;;-83
2022/05/24 19:14:43;;;;;;;;;;;;;;;17.2;51.47656;101010.8;;;;-83
2022/05/24 19:17:16;;;;;;;2.8;1.4;;;;;;;;;;;;;-83
2022/05/24 19:19:45;;;;;;;;;;;;;;;16.95;51.75293;101016.2;;;;-82
2022/05/24 19:24:43;;;;;;;;;;;;;;;16.71;52.03027;101022.2;;;;-83
2022/05/24 19:29:43;;;;;;;;;;;;;;;16.47;52.4873;101020.8;;;;-83
2022/05/24 19:34:36;;;;;;;;;;;;;;;16.25;52.90332;101025.2;;;;-82
2022/05/24 19:44:37;;;;;;;;;;;;;;;15.81;53.95605;101035.9;;;;-83
2022/05/24 19:47:29;;;;;;;2.8;1.4;;;;;;;;;;;;;-82
2022/05/24 19:49:44;;;;;;;;;;;;;;;15.6;54.42773;101049.5;;;;-81
2022/05/24 19:54:42;;;;;;;;;;;;;;;15.4;54.78613;101057.3;;;;-79
2022/05/24 20:00:01;;;;;;;;;;;;;;;;;;;;;
2022/05/24 20:04:40;;;;;;;;;;;;;;;15.04;55.32617;101070.3;;;;-83
2022/05/24 20:09:43;;;;;;;;;;;;;;;14.87;55.99121;101080.3;;;;-83
2022/05/24 20:14:39;;;;;;;;;;;;;;;14.7;56.08203;101088;;;;-82
2022/05/24 20:17:30;;;;;;;3.6;1.7;;;;;;;;;;;;;-85
2022/05/24 20:19:48;;;;;;;;;;;;;;;14.56;56.80664;101096.4;;;;-82
2022/05/24 20:24:46;;;;;;;;;;;;;;;14.4;57.05566;101104.6;;;;-82
2022/05/24 20:29:49;;;;;;;;;;;;;;;14.26;57.3418;101116.1;;;;-82
2022/05/24 20:34:41;;;;;;;;;;;;;;;14.15;57.68652;101123.1;;;;-80
2022/05/24 20:39:42;;;;;;;;;;;;;;;14;57.64355;101132.7;;;;-81
2022/05/24 20:44:34;;;;;;;;;;;;;;;13.89;58.05664;101130.4;;;;-82
2022/05/24 20:47:21;;;;;;;3.5;1.6;;;;;;;;;;;;;-83
2022/05/24 20:49:37;;;;;;;;;;;;;;;13.77;57.91797;101125.5;;;;-84
2022/05/24 20:54:38;;;;;;;;;;;;;;;13.67;58.55566;101127.9;;;;-81
2022/05/24 20:59:34;;;;;;;;;;;;;;;13.58;58.61035;101125.9;;;;-82
2022/05/24 21:04:36;;;;;;;;;;;;;;;13.5;59.00195;101131.9;;;;-82
2022/05/24 21:09:38;;;;;;;;;;;;;;;13.39;59.06641;101136;;;;-83
2022/05/24 21:14:37;;;;;;;;;;;;;;;13.3;59.22266;101138.3;;;;-81
2022/05/24 21:17:24;;;;;;;5;1.8;;;;;;;;;;;;;-82
2022/05/24 21:19:37;;;;;;;;;;;;;;;13.21;59.34473;101137.8;;;;-82
2022/05/24 21:24:34;;;;;;;;;;;;;;;13.12;59.73535;101138.4;;;;-81
2022/05/24 21:29:43;;;;;;;;;;;;;;;13.05;60.10645;101140.1;;;;-83
2022/05/24 21:34:41;;;;;;;;;;;;;;;12.95;59.90234;101138.7;;;;-82
2022/05/24 21:39:37;;;;;;;;;;;;;;;12.87;60.29492;101142.7;;;;-80
2022/05/24 21:44:36;;;;;;;;;;;;;;;12.78;60.13574;101145.5;;;;-81
2022/05/24 21:47:23;;;;;;;3.5;1.7;;;;;;;;;;;;;-81
2022/05/24 21:49:34;;;;;;;;;;;;;;;12.68;60.44824;101150.3;;;;-82
2022/05/24 21:54:35;;;;;;;;;;;;;;;12.61;60.80664;101158.5;;;;-85
2022/05/24 21:59:43;;;;;;;;;;;;;;;12.55;60.70898;101165.8;;;;-80
2022/05/24 22:04:35;;;;;;;;;;;;;;;12.44;60.50488;101164.5;;;;-82
2022/05/24 22:09:35;;;;;;;;;;;;;;;12.4;61.30273;101170.3;;;;-81
2022/05/24 22:14:37;;;;;;;;;;;;;;;12.3;60.78613;101171.2;;;;-82
2022/05/24 22:17:24;;;;;;;6.3;1.9;;;;;;;;;;;;;-82
2022/05/24 22:19:37;;;;;;;;;;;;;;;12.25;61.30469;101177.3;;;;-83
2022/05/24 22:24:34;;;;;;;;;;;;;;;12.19;61.27539;101184.5;;;;-81
2022/05/24 22:29:34;;;;;;;;;;;;;;;12.11;61.10645;101185.4;;;;-83
2022/05/24 22:34:37;;;;;;;;;;;;;;;12.05;61.62305;101187.8;;;;-83
2022/05/24 22:39:34;;;;;;;;;;;;;;;11.97;61.43164;101194.5;;;;-82
2022/05/24 22:47:26;;;;;;;4.2;1.7;;;;;;;;;;;;;-79
2022/05/24 22:49:34;;;;;;;;;;;;;;;11.85;61.75098;101200.8;;;;-81
2022/05/24 22:54:35;;;;;;;;;;;;;;;11.81;62.10352;101203.4;;;;-81
2022/05/24 22:59:34;;;;;;;;;;;;;;;11.75;62.17188;101201;;;;-81
2022/05/24 23:04:34;;;;;;;;;;;;;;;11.7;62.39844;101198.5;;;;-81
2022/05/24 23:09:36;;;;;;;;;;;;;;;11.63;61.95508;101199.3;;;;-81
2022/05/24 23:14:37;;;;;;;;;;;;;;;11.58;62.53809;101199.3;;;;-81
2022/05/24 23:17:27;;;;;;;4.9;1.7;;;;;;;;;;;;;-80
2022/05/24 23:19:34;;;;;;;;;;;;;;;11.55;62.35449;101197;;;;-81
2022/05/24 23:24:36;;;;;;;;;;;;;;;11.5;62.22559;101195.1;;;;-82
2022/05/24 23:29:38;;;;;;;;;;;;;;;11.45;62.48535;101186.1;;;;-83
2022/05/24 23:34:37;;;;;;;;;;;;;;;11.38;62.31934;101188.6;;;;-81
2022/05/24 23:39:35;;;;;;;;;;;;;;;11.34;62.52637;101194.6;;;;-82
2022/05/24 23:44:36;;;;;;;;;;;;;;;11.29;62.56348;101190.6;;;;-81
2022/05/24 23:47:29;;;;;;;4.3;1.7;;;;;;;;;;;;;-82
2022/05/24 23:49:34;;;;;;;;;;;;;;;11.25;62.49121;101197.7;;;;-81
2022/05/24 23:54:38;;;;;;;;;;;;;;;11.21;62.61816;101201.7;;;;-82
2022/05/24 23:59:34;;;;;;;;;;;;;;;11.14;62.58691;101200.3;;;;-83
